Time;durP1;ratioP1;P1;durP2;ratioP2;P2;SDS_P1;SDS_P2;PMS_P1;PMS_P2;Temp;Humidity;BMP_temperature;BMP_pressure;BME280_temperature;BME280_humidity;BME280_pressure;Samples;Min_cycle;Max_cycle;Signal;HPM_P1;HPM_P2
2022/06/01 00:01:31;;;;;;;0.75;0.75;;;19.00;56.40;;;;;;5017508;28;43935;-61
2022/06/01 00:03:59;;;;;;;0.68;0.68;;;19.00;56.50;;;;;;5008844;28;43444;-61
2022/06/01 00:06:27;;;;;;;0.60;0.60;;;19.00;56.50;;;;;;5017883;28;43432;-61
2022/06/01 00:08:55;;;;;;;0.70;0.70;;;19.00;56.50;;;;;;5014430;28;43478;-61
2022/06/01 00:11:22;;;;;;;0.63;0.63;;;19.00;56.50;;;;;;5031486;28;43907;-61
2022/06/01 00:13:50;;;;;;;0.65;0.65;;;19.00;56.50;;;;;;5021955;28;43489;-62
2022/06/01 00:16:17;;;;;;;0.90;0.90;;;19.00;56.50;;;;;;5020194;28;43539;-62
2022/06/01 00:18:45;;;;;;;0.60;0.60;;;19.00;56.50;;;;;;5012355;28;43438;-62
2022/06/01 00:21:13;;;;;;;0.70;0.70;;;19.00;56.50;;;;;;5019912;28;46104;-61
2022/06/01 00:23:40;;;;;;;0.70;0.70;;;19.00;56.50;;;;;;5023772;28;43462;-62
2022/06/01 00:26:08;;;;;;;2.13;0.65;;;19.00;56.40;;;;;;5009046;28;43570;-61
2022/06/01 00:28:36;;;;;;;0.70;0.70;;;18.90;56.40;;;;;;5014562;28;43446;-62
2022/06/01 00:31:03;;;;;;;0.63;0.63;;;19.00;56.40;;;;;;5021070;28;44063;-62
2022/06/01 00:33:31;;;;;;;0.80;0.80;;;18.90;56.40;;;;;;5021823;28;43979;-61
2022/06/01 00:35:59;;;;;;;0.70;0.70;;;18.90;56.40;;;;;;5009635;28;43455;-62
2022/06/01 00:38:26;;;;;;;0.77;0.77;;;18.90;56.40;;;;;;5022374;28;43593;-61
2022/06/01 00:40:55;;;;;;;0.70;0.70;;;18.90;56.40;;;;;;5020895;28;45083;-61
2022/06/01 00:43:42;;;;;;;0.70;0.70;;;18.90;56.50;;;;;;5033387;28;43509;-61
2022/06/01 00:46:10;;;;;;;0.60;0.60;;;18.90;56.50;;;;;;5007309;28;43495;-62
2022/06/01 00:48:43;;;;;;;0.55;0.55;;;18.90;56.40;;;;;;5013247;28;43463;-61
2022/06/01 00:51:15;;;;;;;0.85;0.85;;;18.90;56.40;;;;;;5020504;28;44053;-61
2022/06/01 00:53:45;;;;;;;0.68;0.68;;;18.90;56.40;;;;;;5018391;28;43525;-61
2022/06/01 00:56:19;;;;;;;1.05;0.70;;;18.90;56.50;;;;;;5012378;28;43427;-61
2022/06/01 00:58:51;;;;;;;0.80;0.80;;;18.90;56.50;;;;;;5019480;28;43521;-62
2022/06/01 01:01:20;;;;;;;1.17;0.70;;;18.90;56.50;;;;;;5020300;28;44014;-61
2022/06/01 01:03:53;;;;;;;0.80;0.80;;;18.90;56.50;;;;;;5008361;28;43982;-61
2022/06/01 01:06:23;;;;;;;0.75;0.75;;;18.80;56.40;;;;;;5017619;28;43442;-61
2022/06/01 01:08:51;;;;;;;0.80;0.80;;;18.90;56.40;;;;;;5022152;28;43555;-61
2022/06/01 01:11:48;;;;;;;1.13;0.80;;;18.90;56.50;;;;;;5018670;28;44043;-62
2022/06/01 01:14:20;;;;;;;0.60;0.60;;;18.80;56.40;;;;;;5011108;28;43600;-64
2022/06/01 01:16:49;;;;;;;0.82;0.82;;;18.90;56.50;;;;;;5016461;28;43446;-61
2022/06/01 01:19:43;;;;;;;0.90;0.90;;;18.80;56.40;;;;;;5023372;28;43645;-62
2022/06/01 01:22:22;;;;;;;1.20;1.00;;;18.80;56.40;;;;;;5012835;28;44033;-61
2022/06/01 01:25:17;;;;;;;0.93;0.93;;;18.80;56.40;;;;;;5012777;28;44103;-62
2022/06/01 01:27:47;;;;;;;0.93;0.93;;;18.90;56.40;;;;;;5016921;28;43399;-61
2022/06/01 01:30:24;;;;;;;0.88;0.88;;;18.80;56.40;;;;;;5011156;28;43515;-61
2022/06/01 01:32:53;;;;;;;0.70;0.70;;;18.80;56.40;;;;;;5024930;28;44053;-62
2022/06/01 01:35:20;;;;;;;0.68;0.68;;;18.80;56.40;;;;;;5017062;28;43455;-61
2022/06/01 01:37:51;;;;;;;0.60;0.60;;;18.80;56.40;;;;;;5022705;28;43543;-61
2022/06/01 01:40:18;;;;;;;0.70;0.70;;;18.80;56.40;;;;;;5010528;28;43589;-62
2022/06/01 01:42:48;;;;;;;0.98;0.98;;;18.80;56.40;;;;;;5014543;28;44350;-61
2022/06/01 01:45:28;;;;;;;0.80;0.80;;;18.80;56.40;;;;;;5018703;28;43638;-61
2022/06/01 01:47:56;;;;;;;0.88;0.88;;;18.80;56.40;;;;;;5023825;28;43471;-61
2022/06/01 01:50:24;;;;;;;1.55;0.77;;;18.80;56.40;;;;;;5008834;28;43649;-62
2022/06/01 01:52:53;;;;;;;0.77;0.77;;;18.80;56.40;;;;;;5012393;28;44994;-61
2022/06/01 01:55:39;;;;;;;1.10;0.98;;;18.80;56.40;;;;;;5020492;28;43467;-61
2022/06/01 01:58:28;;;;;;;1.08;0.98;;;18.80;56.40;;;;;;5021039;28;43417;-61
2022/06/01 02:01:13;;;;;;;0.90;0.90;;;18.80;56.40;;;;;;5010854;28;44083;-61
2022/06/01 02:03:51;;;;;;;0.80;0.80;;;18.80;56.40;;;;;;5018632;28;43862;-61
2022/06/01 02:06:34;;;;;;;0.77;0.77;;;18.80;56.40;;;;;;5018047;28;44023;-61
2022/06/01 02:09:08;;;;;;;0.80;0.80;;;18.70;56.40;;;;;;5011357;28;43488;-61
2022/06/01 02:14:55;;;;;;;1.08;0.93;;;18.70;56.40;;;;;;5011698;28;45010;-61
2022/06/01 02:17:37;;;;;;;0.70;0.70;;;18.70;56.50;;;;;;5012108;28;43996;-61
2022/06/01 02:20:10;;;;;;;;;;;18.70;56.50;;;;;;5011090;28;43537;-61
2022/06/01 02:22:41;;;;;;;1.45;1.40;;;18.70;56.50;;;;;;5020219;28;44023;-61
2022/06/01 02:25:11;;;;;;;0.95;0.93;;;18.70;56.50;;;;;;5036648;28;44068;-62
2022/06/01 02:27:41;;;;;;;0.70;0.70;;;18.60;56.50;;;;;;5010227;28;43484;-61
2022/06/01 02:30:35;;;;;;;1.08;1.08;;;18.60;56.50;;;;;;5013630;28;43481;-62
2022/06/01 02:33:05;;;;;;;1.05;1.00;;;18.70;56.50;;;;;;5021288;28;43421;-62
2022/06/01 02:35:36;;;;;;;0.90;0.90;;;18.60;56.50;;;;;;5007785;28;44051;-62
2022/06/01 02:38:10;;;;;;;0.90;0.90;;;18.60;56.40;;;;;;5010999;28;43515;-62
2022/06/01 02:40:38;;;;;;;1.02;1.02;;;18.60;56.50;;;;;;5010348;28;43505;-62
2022/06/01 02:43:06;;;;;;;1.05;1.00;;;18.70;56.50;;;;;;5030260;28;43606;-61
2022/06/01 02:45:33;;;;;;;0.80;0.80;;;18.60;56.40;;;;;;5007925;28;44681;-61
2022/06/01 02:48:03;;;;;;;1.00;1.00;;;18.60;56.40;;;;;;5011214;28;43438;-62
2022/06/01 02:50:32;;;;;;;0.90;0.90;;;18.60;56.50;;;;;;5014382;28;43498;-61
2022/06/01 02:53:01;;;;;;;0.93;0.93;;;18.60;56.50;;;;;;5017645;28;43551;-61
2022/06/01 02:55:30;;;;;;;1.00;1.00;;;18.60;56.50;;;;;;5017933;28;45010;-61
2022/06/01 02:57:57;;;;;;;0.65;0.65;;;18.60;56.50;;;;;;5010836;28;43504;-62
2022/06/01 03:00:32;;;;;;;0.85;0.85;;;18.60;56.50;;;;;;5020158;28;43426;-61
2022/06/01 03:03:01;;;;;;;0.95;0.95;;;18.60;56.50;;;;;;5007934;28;43506;-61
2022/06/01 03:05:32;;;;;;;0.85;0.85;;;18.60;56.50;;;;;;5009045;28;44041;-61
2022/06/01 03:08:00;;;;;;;1.00;1.00;;;18.60;56.50;;;;;;5018033;28;43332;-61
2022/06/01 03:10:29;;;;;;;0.77;0.77;;;18.60;56.50;;;;;;5022937;28;43481;-62
2022/06/01 03:12:57;;;;;;;0.85;0.85;;;18.60;56.60;;;;;;5007151;28;43527;-62
2022/06/01 03:15:26;;;;;;;0.90;0.90;;;18.50;56.50;;;;;;5010581;28;44951;-62
2022/06/01 03:17:54;;;;;;;0.90;0.90;;;18.50;56.60;;;;;;5019435;28;44228;-62
2022/06/01 03:20:24;;;;;;;0.90;0.90;;;18.60;57.30;;;;;;5021932;28;43450;-61
2022/06/01 03:22:57;;;;;;;1.05;1.05;;;18.50;56.60;;;;;;5007899;28;43473;-61
2022/06/01 03:25:27;;;;;;;1.02;1.02;;;18.50;56.60;;;;;;5013860;28;45009;-62
2022/06/01 03:27:57;;;;;;;1.75;0.80;;;18.50;56.60;;;;;;5020086;28;43786;-61
2022/06/01 03:30:28;;;;;;;0.70;0.70;;;18.50;56.70;;;;;;5008154;28;43562;-62
2022/06/01 03:32:57;;;;;;;1.00;1.00;;;18.50;56.60;;;;;;5011011;28;43523;-61
2022/06/01 03:35:28;;;;;;;1.05;0.90;;;18.50;56.70;;;;;;5019367;28;44054;-61
2022/06/01 03:37:57;;;;;;;;;;;18.50;56.70;;;;;;5024660;28;43526;-61
2022/06/01 03:40:29;;;;;;;0.88;0.88;;;18.50;56.70;;;;;;5022240;28;43454;-61
2022/06/01 03:42:57;;;;;;;0.90;0.90;;;18.50;56.70;;;;;;5015522;28;43574;-61
2022/06/01 03:48:12;;;;;;;0.80;0.80;;;18.50;56.70;;;;;;5023489;28;43543;-61
2022/06/01 03:50:41;;;;;;;0.70;0.70;;;18.50;56.80;;;;;;5010443;28;44091;-61
2022/06/01 03:53:08;;;;;;;1.00;1.00;;;18.50;56.70;;;;;;5016546;28;43576;-61
2022/06/01 03:55:36;;;;;;;0.80;0.80;;;18.50;56.70;;;;;;5022626;28;44172;-61
2022/06/01 03:58:04;;;;;;;0.75;0.63;;;18.50;56.80;;;;;;5023185;28;44248;-61
2022/06/01 04:00:33;;;;;;;0.80;0.80;;;18.50;56.80;;;;;;5010943;28;43541;-61
2022/06/01 04:03:01;;;;;;;0.63;0.63;;;18.40;56.70;;;;;;5034115;28;43491;-61
2022/06/01 04:05:29;;;;;;;0.90;0.90;;;18.40;56.70;;;;;;5022827;28;43617;-61
2022/06/01 04:07:56;;;;;;;0.80;0.80;;;18.50;56.70;;;;;;5022611;28;43490;-62
2022/06/01 04:10:25;;;;;;;0.70;0.70;;;18.40;56.70;;;;;;5015490;28;43373;-61
2022/06/01 04:12:58;;;;;;;0.75;0.75;;;18.40;56.70;;;;;;5026785;28;43570;-61
2022/06/01 04:15:26;;;;;;;0.80;0.80;;;18.50;56.80;;;;;;5023835;28;44087;-61
2022/06/01 04:17:53;;;;;;;0.80;0.80;;;18.40;56.70;;;;;;5009950;28;43992;-62
2022/06/01 04:20:22;;;;;;;0.70;0.70;;;18.40;56.70;;;;;;5013067;28;43400;-62
2022/06/01 04:22:53;;;;;;;0.75;0.75;;;18.40;56.70;;;;;;5021937;28;44167;-62
2022/06/01 04:25:23;;;;;;;1.05;0.77;;;18.40;56.70;;;;;;5024427;28;44089;-61
2022/06/01 04:27:51;;;;;;;0.70;0.60;;;18.40;56.80;;;;;;5010370;28;43481;-61
2022/06/01 04:30:20;;;;;;;0.98;0.98;;;18.40;56.70;;;;;;5016114;28;43741;-61
2022/06/01 04:32:51;;;;;;;0.60;0.60;;;18.40;56.70;;;;;;5022468;28;43510;-61
2022/06/01 04:35:20;;;;;;;0.80;0.80;;;18.40;57.50;;;;;;5023917;28;43819;-61
2022/06/01 04:37:48;;;;;;;0.68;0.68;;;18.40;56.70;;;;;;5011081;28;43590;-62
2022/06/01 04:40:17;;;;;;;0.80;0.80;;;18.40;56.80;;;;;;5018170;28;43403;-61
2022/06/01 04:42:45;;;;;;;0.80;0.80;;;18.40;56.80;;;;;;5032963;28;43494;-61
2022/06/01 04:45:15;;;;;;;0.90;0.90;;;18.40;56.70;;;;;;5011803;28;44964;-61
2022/06/01 04:47:43;;;;;;;0.90;0.90;;;18.40;56.80;;;;;;5012751;28;43455;-62
2022/06/01 04:50:11;;;;;;;0.63;0.63;;;18.40;56.80;;;;;;5020707;28;43470;-62
2022/06/01 04:52:38;;;;;;;0.73;0.73;;;18.40;56.90;;;;;;5023647;28;43569;-61
2022/06/01 04:55:07;;;;;;;1.40;1.02;;;18.40;56.90;;;;;;5010796;28;43680;-62
2022/06/01 04:57:36;;;;;;;0.77;0.77;;;18.40;56.90;;;;;;5013388;28;43989;-61
2022/06/01 05:00:05;;;;;;;1.10;1.00;;;18.30;56.80;;;;;;5021607;28;43477;-62
2022/06/01 05:02:34;;;;;;;0.73;0.73;;;18.40;56.80;;;;;;5024477;28;43649;-61
2022/06/01 05:05:03;;;;;;;1.35;0.95;;;18.30;56.80;;;;;;5010670;28;44868;-61
2022/06/01 05:07:31;;;;;;;1.00;1.00;;;18.40;56.90;;;;;;5016096;28;43471;-62
2022/06/01 05:09:58;;;;;;;0.80;0.80;;;18.40;56.80;;;;;;5024834;28;43436;-61
2022/06/01 05:12:26;;;;;;;1.00;1.00;;;18.40;56.80;;;;;;5012344;28;44094;-62
2022/06/01 05:14:53;;;;;;;0.70;0.70;;;18.40;56.90;;;;;;5011604;28;44698;-61
2022/06/01 05:17:21;;;;;;;0.90;0.90;;;18.40;56.90;;;;;;5017499;28;43792;-62
2022/06/01 05:19:48;;;;;;;0.70;0.70;;;18.40;56.90;;;;;;5023582;28;43781;-62
2022/06/01 05:22:16;;;;;;;0.68;0.68;;;18.30;57.00;;;;;;5012838;28;43608;-61
2022/06/01 05:24:44;;;;;;;1.25;1.13;;;18.30;57.00;;;;;;5012030;28;44070;-61
2022/06/01 05:27:11;;;;;;;1.23;0.70;;;18.30;57.00;;;;;;5018152;28;43438;-62
2022/06/01 05:29:39;;;;;;;1.20;0.95;;;18.30;57.00;;;;;;5023635;28;43470;-62
2022/06/01 05:32:07;;;;;;;0.90;0.90;;;18.30;57.10;;;;;;5012404;28;43612;-61
2022/06/01 05:34:36;;;;;;;0.70;0.70;;;18.30;57.10;;;;;;5020828;28;44064;-61
2022/06/01 05:37:08;;;;;;;0.82;0.82;;;18.30;57.10;;;;;;5020600;28;43428;-61
2022/06/01 05:39:36;;;;;;;0.70;0.70;;;18.30;57.10;;;;;;5024594;28;43466;-61
2022/06/01 05:42:04;;;;;;;0.88;0.88;;;18.30;57.10;;;;;;5016881;28;43670;-62
2022/06/01 05:44:31;;;;;;;0.80;0.80;;;18.40;57.10;;;;;;5027682;28;43974;-61
2022/06/01 05:47:01;;;;;;;0.80;0.80;;;18.40;57.20;;;;;;5022947;28;43986;-62
2022/06/01 05:49:29;;;;;;;0.80;0.80;;;18.40;57.10;;;;;;5011974;28;43817;-61
2022/06/01 05:51:58;;;;;;;1.15;0.82;;;18.40;57.10;;;;;;5013860;28;43589;-61
2022/06/01 05:54:25;;;;;;;0.80;0.80;;;18.30;57.00;;;;;;5013794;28;44358;-61
2022/06/01 05:56:53;;;;;;;0.80;0.80;;;18.30;57.10;;;;;;5023423;28;43990;-62
2022/06/01 05:59:20;;;;;;;0.95;0.95;;;18.40;57.10;;;;;;5012422;28;43461;-61
2022/06/01 06:01:49;;;;;;;1.35;0.90;;;18.40;57.10;;;;;;5014569;28;43528;-61
2022/06/01 06:04:16;;;;;;;1.17;0.90;;;18.40;57.10;;;;;;5016346;28;45314;-61
2022/06/01 06:06:44;;;;;;;0.82;0.82;;;18.40;57.10;;;;;;5014798;28;43517;-61
2022/06/01 06:09:12;;;;;;;1.05;0.80;;;18.30;57.00;;;;;;5013417;28;43505;-61
2022/06/01 06:11:40;;;;;;;0.80;0.80;;;18.40;57.10;;;;;;5015127;28;44291;-62
2022/06/01 06:14:08;;;;;;;0.90;0.90;;;18.40;57.10;;;;;;5017722;28;44924;-61
2022/06/01 06:16:42;;;;;;;1.95;0.93;;;18.40;57.00;;;;;;5013524;28;43537;-61
2022/06/01 06:19:12;;;;;;;0.70;0.70;;;18.40;57.10;;;;;;5012342;28;43444;-61
2022/06/01 06:21:40;;;;;;;0.70;0.70;;;18.30;57.00;;;;;;5014680;28;43687;-61
2022/06/01 06:24:13;;;;;;;0.88;0.82;;;18.40;57.10;;;;;;5020488;28;43811;-61
2022/06/01 06:26:45;;;;;;;1.23;0.63;;;18.30;57.00;;;;;;5012445;28;43451;-61
2022/06/01 06:29:15;;;;;;;0.80;0.80;;;18.40;57.00;;;;;;5011619;28;43414;-61
2022/06/01 06:31:43;;;;;;;1.27;0.88;;;18.40;56.90;;;;;;5014068;28;43666;-61
2022/06/01 06:34:17;;;;;;;0.90;0.90;;;18.40;57.00;;;;;;5021975;28;44731;-61
2022/06/01 06:36:45;;;;;;;0.70;0.70;;;18.40;57.00;;;;;;5012584;28;43682;-61
2022/06/01 06:39:13;;;;;;;1.30;0.80;;;18.30;56.90;;;;;;5014322;28;43476;-61
2022/06/01 06:41:41;;;;;;;2.05;0.75;;;18.40;56.90;;;;;;5015728;28;43665;-61
2022/06/01 06:44:08;;;;;;;1.75;1.10;;;18.40;57.60;;;;;;5013831;28;45000;-62
2022/06/01 06:46:36;;;;;;;0.90;0.90;;;18.40;56.90;;;;;;5010596;28;43471;-61
2022/06/01 06:49:04;;;;;;;0.80;0.80;;;18.40;56.80;;;;;;5014705;28;43478;-62
2022/06/01 06:51:36;;;;;;;0.82;0.82;;;18.40;56.90;;;;;;5018466;28;43535;-62
2022/06/01 06:54:04;;;;;;;0.80;0.80;;;18.40;56.90;;;;;;5013270;28;43750;-61
2022/06/01 06:56:31;;;;;;;0.82;0.82;;;18.30;56.80;;;;;;5012006;28;43882;-61
2022/06/01 06:58:59;;;;;;;0.77;0.77;;;18.40;56.90;;;;;;5013768;28;43494;-61
2022/06/01 07:01:26;;;;;;;1.38;0.70;;;18.40;56.80;;;;;;5022023;28;43506;-62
2022/06/01 07:03:54;;;;;;;0.80;0.80;;;18.40;56.90;;;;;;5012904;28;43862;-61
2022/06/01 07:06:23;;;;;;;0.90;0.90;;;18.40;56.90;;;;;;5049208;28;43487;-62
2022/06/01 07:08:54;;;;;;;0.93;0.88;;;18.30;56.90;;;;;;5021201;28;43491;-62
2022/06/01 07:11:25;;;;;;;0.97;0.90;;;18.30;56.90;;;;;;5019856;28;43472;-61
2022/06/01 07:13:53;;;;;;;1.20;1.10;;;18.30;56.90;;;;;;5011593;28;44378;-61
2022/06/01 07:16:27;;;;;;;0.93;0.93;;;18.30;56.90;;;;;;5019836;28;43491;-61
2022/06/01 07:18:58;;;;;;;0.60;0.60;;;18.30;57.00;;;;;;5021697;28;43374;-61
2022/06/01 07:21:27;;;;;;;0.70;0.70;;;18.30;56.90;;;;;;5018178;28;43548;-62
2022/06/01 07:23:59;;;;;;;0.80;0.80;;;18.30;56.90;;;;;;5015034;28;44222;-62
2022/06/01 07:26:35;;;;;;;0.90;0.90;;;18.30;56.90;;;;;;5018527;28;43977;-62
2022/06/01 07:29:03;;;;;;;3.42;0.93;;;18.30;57.10;;;;;;5025500;28;43437;-62
2022/06/01 07:31:31;;;;;;;2.95;1.30;;;18.30;57.10;;;;;;5015558;28;43587;-63
2022/06/01 07:34:00;;;;;;;3.30;1.70;;;18.30;57.30;;;;;;5013456;28;44860;-62
2022/06/01 07:36:29;;;;;;;1.73;1.63;;;18.30;57.30;;;;;;5020616;28;45612;-62
2022/06/01 07:44:29;;;;;;;1.70;1.60;;;18.60;57.80;;;;;;5014465;28;44987;-62
2022/06/01 07:46:57;;;;;;;1.80;1.70;;;18.70;57.70;;;;;;5024628;28;43602;-63
2022/06/01 07:49:45;;;;;;;2.83;1.90;;;18.80;57.30;;;;;;5013950;28;43511;-60
2022/06/01 07:52:34;;;;;;;1.80;1.60;;;18.90;57.30;;;;;;5017146;28;43962;-62
2022/06/01 07:55:02;;;;;;;1.90;1.52;;;19.00;57.00;;;;;;5021707;28;44062;-64
2022/06/01 07:57:32;;;;;;;1.90;1.50;;;19.10;56.90;;;;;;5024257;28;43415;-63
2022/06/01 07:59:59;;;;;;;1.58;1.48;;;19.20;56.70;;;;;;5010978;28;43531;-64
2022/06/01 08:02:27;;;;;;;1.63;1.52;;;19.40;57.00;;;;;;5044570;28;43689;-63
2022/06/01 08:04:54;;;;;;;1.70;1.60;;;19.50;56.80;;;;;;5024264;28;44029;-64
2022/06/01 08:07:22;;;;;;;1.77;1.40;;;19.50;56.70;;;;;;5025204;28;43417;-63
2022/06/01 08:09:50;;;;;;;2.35;1.95;;;19.50;56.50;;;;;;5016159;28;43462;-62
2022/06/01 08:15:04;;;;;;;1.67;1.42;;;19.60;56.20;;;;;;5022864;28;44355;-63
2022/06/01 08:17:31;;;;;;;1.58;1.48;;;19.70;56.40;;;;;;5010923;28;43998;-63
2022/06/01 08:19:59;;;;;;;1.20;1.10;;;19.70;56.30;;;;;;5011914;28;43433;-63
2022/06/01 08:22:26;;;;;;;1.48;1.20;;;19.80;56.30;;;;;;5018376;28;43580;-61
2022/06/01 08:24:54;;;;;;;4.38;1.80;;;19.90;56.20;;;;;;5020334;28;43856;-62
2022/06/01 08:27:21;;;;;;;2.28;1.63;;;20.00;56.60;;;;;;5011923;28;43590;-62
2022/06/01 08:29:50;;;;;;;1.83;1.52;;;20.10;56.80;;;;;;5043709;28;43454;-63
2022/06/01 08:32:17;;;;;;;3.00;1.48;;;20.30;56.80;;;;;;5019364;28;43586;-61
2022/06/01 08:34:45;;;;;;;2.40;1.30;;;20.40;57.00;;;;;;5023824;28;43827;-61
2022/06/01 08:37:12;;;;;;;1.90;1.40;;;20.60;56.50;;;;;;5012456;28;43997;-61
2022/06/01 08:39:40;;;;;;;2.05;1.40;;;20.70;56.30;;;;;;5012901;28;43458;-62
2022/06/01 08:42:14;;;;;;;1.40;1.30;;;20.80;56.20;;;;;;5026450;28;43759;-59
2022/06/01 08:44:44;;;;;;;1.83;1.23;;;21.00;55.90;;;;;;5029252;28;44104;-61
2022/06/01 08:47:30;;;;;;;2.17;1.27;;;21.10;55.50;;;;;;5022832;28;43556;-62
2022/06/01 08:50:01;;;;;;;2.33;1.30;;;21.20;55.40;;;;;;5017126;28;43406;-60
2022/06/01 08:52:30;;;;;;;2.17;1.20;;;21.30;55.40;;;;;;5022712;28;43594;-60
2022/06/01 08:54:58;;;;;;;1.58;1.17;;;21.30;55.00;;;;;;5008786;28;44855;-60
2022/06/01 08:57:34;;;;;;;2.50;1.00;;;21.40;55.70;;;;;;5011640;28;43452;-61
2022/06/01 09:00:21;;;;;;;1.98;1.20;;;21.50;54.80;;;;;;5013844;28;43524;-61
2022/06/01 09:03:23;;;;;;;1.73;1.08;;;21.50;54.40;;;;;;5022751;28;43567;-61
2022/06/01 09:05:59;;;;;;;0.95;0.95;;;21.60;54.40;;;;;;5005742;28;44023;-61
2022/06/01 09:08:33;;;;;;;1.52;1.13;;;21.60;54.30;;;;;;5019153;28;43996;-62
2022/06/01 09:11:13;;;;;;;1.23;0.90;;;21.70;54.10;;;;;;5024345;28;43442;-61
2022/06/01 09:14:01;;;;;;;1.05;0.95;;;21.70;54.10;;;;;;5014774;28;43533;-62
2022/06/01 09:16:34;;;;;;;1.05;1.00;;;21.70;54.00;;;;;;5013921;28;44032;-61
2022/06/01 09:19:07;;;;;;;1.10;1.10;;;21.70;53.90;;;;;;5016170;28;43734;-63
2022/06/01 09:24:32;;;;;;;2.30;1.13;;;21.80;54.20;;;;;;5011708;28;43537;-63
2022/06/01 09:27:09;;;;;;;1.70;0.90;;;21.80;54.20;;;;;;5019266;28;45486;-63
2022/06/01 09:29:48;;;;;;;1.25;1.15;;;21.80;54.60;;;;;;5022050;28;43500;-63
2022/06/01 09:32:27;;;;;;;1.45;0.90;;;21.90;54.70;;;;;;5011044;28;44065;-63
2022/06/01 09:35:00;;;;;;;1.92;1.35;;;21.90;54.70;;;;;;5013151;28;43592;-63
2022/06/01 09:37:32;;;;;;;1.00;0.93;;;22.00;54.70;;;;;;5028756;28;44984;-63
2022/06/01 09:40:04;;;;;;;0.98;0.98;;;22.00;54.50;;;;;;5021153;28;43443;-62
2022/06/01 09:42:37;;;;;;;0.95;0.90;;;22.00;54.50;;;;;;5009867;28;43454;-63
2022/06/01 09:45:22;;;;;;;1.30;1.00;;;22.00;54.80;;;;;;5016879;28;43562;-63
2022/06/01 09:47:50;;;;;;;1.10;0.70;;;22.10;54.50;;;;;;5022890;28;44035;-62
2022/06/01 09:50:29;;;;;;;1.23;0.98;;;22.10;54.70;;;;;;5007840;28;43476;-63
2022/06/01 09:53:10;;;;;;;1.20;1.00;;;22.10;54.50;;;;;;5012461;28;44086;-62
2022/06/01 09:55:58;;;;;;;1.55;0.80;;;22.10;54.40;;;;;;5019890;28;43573;-63
2022/06/01 10:07:24;;;;;;;;;;;22.10;54.50;;;;;;5023347;28;43505;-63
2022/06/01 10:10:04;;;;;;;1.15;0.70;;;22.00;54.20;;;;;;5019280;28;44159;-63
2022/06/01 10:12:42;;;;;;;0.75;0.75;;;22.00;54.10;;;;;;5018342;28;43481;-63
2022/06/01 10:15:22;;;;;;;2.38;0.70;;;22.00;54.10;;;;;;5021452;28;44055;-63
2022/06/01 10:17:56;;;;;;;0.80;0.80;;;22.10;54.10;;;;;;5022562;28;43461;-63
2022/06/01 10:20:58;;;;;;;1.17;0.77;;;22.00;54.10;;;;;;5019779;28;44141;-64
2022/06/01 10:23:47;;;;;;;0.85;0.70;;;22.00;54.10;;;;;;5010787;28;43437;-62
2022/06/01 10:26:21;;;;;;;0.60;0.60;;;22.00;54.10;;;;;;5020310;28;43458;-63
2022/06/01 10:29:05;;;;;;;0.63;0.63;;;22.00;54.10;;;;;;5054319;28;43562;-63
2022/06/01 10:31:50;;;;;;;0.63;0.63;;;22.00;54.20;;;;;;5018103;28;43845;-63
2022/06/01 10:34:18;;;;;;;0.70;0.70;;;22.00;54.10;;;;;;5022826;28;43594;-62
2022/06/01 10:36:53;;;;;;;0.65;0.65;;;22.00;54.20;;;;;;5020303;28;43507;-63
2022/06/01 10:39:42;;;;;;;0.80;0.80;;;22.00;54.30;;;;;;5013078;28;43574;-63
2022/06/01 10:43:16;;;;;;;0.90;0.70;;;22.00;54.20;;;;;;5023646;28;43804;-62
2022/06/01 10:45:21;;;;;;;0.50;0.50;;;22.00;54.20;;;;;;5017175;28;43453;-63
2022/06/01 10:48:11;;;;;;;0.90;0.70;;;22.00;54.60;;;;;;5015763;28;43444;-63
2022/06/01 10:50:54;;;;;;;0.70;0.70;;;22.00;54.30;;;;;;5018738;28;43607;-63
2022/06/01 10:53:45;;;;;;;0.60;0.60;;;22.00;54.40;;;;;;5017990;28;44112;-62
2022/06/01 10:56:15;;;;;;;0.60;0.60;;;22.00;54.50;;;;;;5010016;28;43716;-63
2022/06/01 10:58:42;;;;;;;0.85;0.85;;;21.90;54.50;;;;;;5015851;28;43570;-63
2022/06/01 11:01:38;;;;;;;0.70;0.70;;;21.90;54.50;;;;;;5019409;28;44073;-64
2022/06/01 11:04:39;;;;;;;0.80;0.80;;;21.90;54.50;;;;;;5011946;28;43856;-64
2022/06/01 11:07:44;;;;;;;0.70;0.70;;;21.90;54.50;;;;;;5011215;28;43464;-63
2022/06/01 11:10:43;;;;;;;0.65;0.60;;;21.90;54.60;;;;;;5018978;28;43462;-63
2022/06/01 11:13:41;;;;;;;0.77;0.77;;;21.90;54.90;;;;;;5004724;28;43471;-62
2022/06/01 11:16:27;;;;;;;1.55;0.80;;;21.90;54.80;;;;;;5014496;28;44695;-63
2022/06/01 11:19:01;;;;;;;0.70;0.70;;;21.90;54.70;;;;;;5016189;28;43394;-62
2022/06/01 11:21:49;;;;;;;1.27;0.60;;;21.80;54.80;;;;;;5013700;28;43429;-62
2022/06/01 11:24:22;;;;;;;1.00;0.75;;;21.80;54.80;;;;;;5012288;28;43530;-63
2022/06/01 11:27:07;;;;;;;0.60;0.60;;;21.80;54.80;;;;;;5014792;28;44002;-62
2022/06/01 11:29:57;;;;;;;0.70;0.70;;;21.80;54.90;;;;;;5020754;28;43454;-62
2022/06/01 11:32:51;;;;;;;0.70;0.70;;;21.80;54.90;;;;;;5007928;28;43416;-62
2022/06/01 11:35:21;;;;;;;0.60;0.60;;;21.80;55.00;;;;;;5012842;28;43559;-63
2022/06/01 11:38:03;;;;;;;1.70;0.90;;;21.70;55.00;;;;;;5018810;28;43988;-62
2022/06/01 11:40:49;;;;;;;1.17;0.60;;;21.70;55.00;;;;;;5017881;28;43704;-62
2022/06/01 11:43:44;;;;;;;0.95;0.70;;;21.70;55.00;;;;;;5012433;28;43436;-63
2022/06/01 11:46:22;;;;;;;1.05;0.80;;;21.70;55.00;;;;;;5015108;28;43565;-62
2022/06/01 11:49:03;;;;;;;0.73;0.73;;;21.70;55.00;;;;;;5011634;28;43780;-63
2022/06/01 11:51:37;;;;;;;1.15;0.88;;;21.70;55.10;;;;;;5011837;28;43964;-63
2022/06/01 11:54:25;;;;;;;1.63;0.98;;;21.70;55.00;;;;;;5015606;28;43535;-62
2022/06/01 11:57:03;;;;;;;1.42;0.90;;;21.70;55.00;;;;;;5014527;28;43519;-64
2022/06/01 11:59:33;;;;;;;0.88;0.88;;;21.70;55.10;;;;;;5013696;28;44447;-62
2022/06/01 12:02:17;;;;;;;1.00;0.82;;;21.70;55.10;;;;;;5012917;28;43408;-62
2022/06/01 12:05:05;;;;;;;1.63;0.80;;;21.70;55.10;;;;;;5021926;28;43584;-62
2022/06/01 12:07:36;;;;;;;1.05;1.00;;;21.70;55.20;;;;;;5025049;28;43522;-63
2022/06/01 12:10:03;;;;;;;;;;;21.70;55.20;;;;;;5012213;28;44099;-62
2022/06/01 12:12:34;;;;;;;0.98;0.90;;;21.70;55.20;;;;;;5017325;28;44026;-62
2022/06/01 12:15:29;;;;;;;0.80;0.80;;;21.60;55.20;;;;;;5022898;28;43592;-62
2022/06/01 12:18:07;;;;;;;1.25;0.85;;;21.60;55.20;;;;;;5009261;28;43456;-63
2022/06/01 12:20:34;;;;;;;1.88;1.08;;;21.60;55.20;;;;;;5014580;28;44065;-62
2022/06/01 12:28:57;;;;;;;1.00;1.00;;;21.70;55.20;;;;;;5021288;28;43445;-63
2022/06/01 12:31:35;;;;;;;1.05;1.02;;;21.70;55.20;;;;;;5017947;28;43909;-62
2022/06/01 12:34:21;;;;;;;1.20;1.10;;;21.70;55.20;;;;;;5013772;28;43448;-63
2022/06/01 12:37:08;;;;;;;1.60;0.98;;;21.70;55.40;;;;;;5015333;28;43497;-62
2022/06/01 12:39:43;;;;;;;1.08;0.98;;;21.70;55.40;;;;;;5013631;28;43531;-63
2022/06/01 12:42:17;;;;;;;1.63;1.17;;;21.80;55.80;;;;;;5019599;28;44654;-63
2022/06/01 12:44:52;;;;;;;1.25;1.15;;;21.80;55.60;;;;;;5047798;28;44006;-62
2022/06/01 12:47:51;;;;;;;1.10;1.00;;;21.80;55.30;;;;;;5012081;28;43593;-62
2022/06/01 12:50:21;;;;;;;2.20;0.90;;;21.80;55.30;;;;;;5018582;28;43487;-63
2022/06/01 12:53:08;;;;;;;1.40;1.30;;;21.80;55.30;;;;;;5022860;28;43822;-63
2022/06/01 12:55:35;;;;;;;0.90;0.90;;;21.80;55.30;;;;;;5009173;28;43502;-63
2022/06/01 12:58:13;;;;;;;1.13;1.00;;;21.80;55.30;;;;;;5017205;28;43533;-63
2022/06/01 13:00:48;;;;;;;1.27;0.90;;;21.80;55.30;;;;;;5019773;28;43491;-63
2022/06/01 13:03:19;;;;;;;0.90;0.88;;;21.80;55.30;;;;;;5019115;28;43795;-64
2022/06/01 13:05:49;;;;;;;;;;;21.80;55.30;;;;;;5010968;28;43480;-63
2022/06/01 13:08:22;;;;;;;1.67;1.00;;;21.80;55.30;;;;;;5019318;28;43412;-63
2022/06/01 13:11:10;;;;;;;1.00;1.00;;;21.80;55.30;;;;;;5024803;28;43642;-64
2022/06/01 13:13:38;;;;;;;1.50;1.08;;;21.80;55.30;;;;;;5022576;28;44980;-63
2022/06/01 13:16:07;;;;;;;0.93;0.93;;;21.80;55.30;;;;;;5017399;28;43431;-63
2022/06/01 13:18:42;;;;;;;1.10;1.10;;;21.80;55.30;;;;;;5017973;28;43446;-63
2022/06/01 13:21:33;;;;;;;1.25;1.08;;;21.80;55.10;;;;;;5017668;28;43545;-63
2022/06/01 13:24:08;;;;;;;1.90;0.93;;;21.90;55.10;;;;;;5020819;28;44667;-63
2022/06/01 13:26:48;;;;;;;1.15;0.95;;;21.90;55.10;;;;;;5019789;28;43509;-63
2022/06/01 13:29:20;;;;;;;1.05;0.80;;;21.90;55.10;;;;;;5022570;28;43398;-63
2022/06/01 13:31:50;;;;;;;1.13;1.00;;;21.90;55.00;;;;;;5013078;28;44134;-63
2022/06/01 13:34:47;;;;;;;1.70;1.10;;;21.90;55.20;;;;;;5016625;28;44158;-62
2022/06/01 13:37:17;;;;;;;1.10;1.00;;;21.90;55.30;;;;;;5020103;28;43624;-63
2022/06/01 13:39:52;;;;;;;1.27;1.00;;;21.90;55.30;;;;;;5024338;28;43439;-63
2022/06/01 13:42:30;;;;;;;0.90;0.90;;;21.90;55.30;;;;;;5012755;28;43543;-63
2022/06/01 13:45:04;;;;;;;0.88;0.60;;;21.90;55.40;;;;;;5019816;28;44668;-63
2022/06/01 13:47:36;;;;;;;1.05;0.88;;;21.90;55.40;;;;;;5022341;28;43377;-63
2022/06/01 13:50:13;;;;;;;1.17;0.90;;;21.90;55.50;;;;;;5009839;28;43480;-63
2022/06/01 13:52:54;;;;;;;0.90;0.90;;;21.90;55.30;;;;;;5012124;28;43425;-63